• Join FlightAware (Why Join?)
  • Login
  • US Flag 
10:28PM EST


 

Airport Tracker/Info


-or-


 

Live Flight TrackerFlight Track Log ✈ AAL832 ✈ 22-Jun-2013 ✈ KLAX - KORD

Flight Track Log - Related Links

Times and Time Zones

All times are in EDT time to prevent confusion due to time zone crossing. See the AAL832 flight status page for this flight to view local times or setup timezone preferences in your user account.

Time Position Orientation Groundspeed Altitude Reporting Facility
EDT Latitude Longitude Course Direction KTS MPH feet Rate Location/Type
12:41PM 33.9333 -118.4333 59° Northeast 188 216 1,300  Level Southern California TRACON
12:42PM 33.9167 -118.5000 253° West 231 266 2,600 2,040 Climbing Southern California TRACON
12:43PM 34.0508 -118.1992 40° Northeast  Level FlightAware Approximate
12:44PM 34.1262 -118.0809 59° Northeast  Level FlightAware Approximate
12:44PM 33.8683 -118.5972 239° Southwest 265 305 6,300  Level Los Angeles Center
12:45PM 34.1904 -117.9525 59° Northeast  Level FlightAware Approximate
12:45PM 33.8156 -118.5478 142° Southeast 273 314 8,400  Level Los Angeles Center
12:46PM 34.2547 -117.8240 59° Northeast  Level FlightAware Approximate
12:46PM 33.8700 -118.4786 47° Northeast 286 329 10,000  Level Los Angeles Center
12:47PM 34.3365 -117.7103 59° Northeast  Level FlightAware Approximate
12:47PM 33.9375 -118.4219 35° Northeast 308 354 11,700  Level Los Angeles Center
12:48PM 33.9925 -118.3269 55° Northeast 341 392 13,900 1,740 Climbing Los Angeles Center
12:49PM 34.0508 -118.2256 55° Northeast 361 415 15,300 1,860 Climbing Los Angeles Center
12:50PM 34.1272 -118.0906 56° Northeast 397 457 17,800 2,160 Climbing Los Angeles Center
12:51PM 34.1919 -117.9769 55° Northeast 407 468 19,800 1,680 Climbing Los Angeles Center
12:52PM 34.2592 -117.8578 56° Northeast 421 484 21,300 1,680 Climbing Los Angeles Center
12:53PM 34.3272 -117.7353 56° Northeast 433 498 23,300 1,740 Climbing Los Angeles Center
12:54PM 34.4014 -117.6014 56° Northeast 447 514 25,000 1,500 Climbing Los Angeles Center
12:55PM 34.4717 -117.4717 57° Northeast 460 529 26,400 1,320 Climbing Los Angeles Center
12:56PM 34.5456 -117.3383 56° Northeast 476 548 27,700 1,200 Climbing Los Angeles Center
12:57PM 34.6203 -117.2025 56° Northeast 485 558 29,000 1,320 Climbing Los Angeles Center
12:58PM 34.7097 -117.0361 57° Northeast 493 567 30,500 1,440 Climbing Los Angeles Center
12:59PM 34.7850 -116.8994 56° Northeast 491 565 32,000 1,380 Climbing Los Angeles Center
01:00PM 34.8592 -116.7644 56° Northeast 480 552 33,400 1,200 Climbing Los Angeles Center
01:01PM 34.9342 -116.6317 55° Northeast 477 549 34,600 960 Climbing Los Angeles Center
01:02PM 35.0186 -116.5053 51° Northeast 481 554 35,400 720 Climbing Los Angeles Center
01:03PM 35.1306 -116.3667 45° Northeast 479 551 36,200 720 Climbing Los Angeles Center
01:04PM 35.2219 -116.2500 46° Northeast 478 550 37,000 420 Climbing Los Angeles Center
01:05PM 35.3156 -116.1317 46° Northeast 482 555 37,100  Climbing Los Angeles Center
01:06PM 35.4097 -116.0125 46° Northeast 487 560 37,100  Level Los Angeles Center
01:07PM 35.5161 -115.8781 46° Northeast 486 559 37,100  Level Los Angeles Center
01:08PM 35.6106 -115.7658 44° Northeast 477 549 37,100  Level Los Angeles Center
01:09PM 35.7031 -115.6442 47° Northeast 482 555 37,100  Level Los Angeles Center
01:10PM 35.7958 -115.5256 46° Northeast 484 557 37,100  Level Los Angeles Center
01:11PM 35.9067 -115.3842 46° Northeast 482 555 37,100  Level Los Angeles Center
01:12PM 35.9981 -115.2656 46° Northeast 483 556 37,100  Level Los Angeles Center
01:14PM 36.0819 -115.1433 50° Northeast 473 544 37,100  Level Los Angeles Center
01:15PM 36.1328 -114.9861 68° East 493 567 37,100  Level Los Angeles Center
01:16PM 36.1811 -114.8278 69° East 495 570 37,100  Level Los Angeles Center
01:17PM 36.2389 -114.6386 69° East 492 566 37,100  Level Los Angeles Center
01:18PM 36.2872 -114.4783 69° East 496 571 37,100  Level Los Angeles Center
01:19PM 36.3356 -114.3169 70° East 499 574 37,100  Level Los Angeles Center
01:20PM 36.3844 -114.1556 69° East 501 577 37,100  Level Los Angeles Center
01:21PM 36.4361 -113.9953 68° East 501 577 37,100  Level Los Angeles Center
01:22PM 36.4903 -113.8356 67° East 501 577 37,100  Level Los Angeles Center
01:23PM 36.5469 -113.6597 68° East 504 580 37,100  Level Los Angeles Center
01:24PM 36.6000 -113.4967 68° East 508 585 37,100  Level Los Angeles Center
01:25PM 36.6628 -113.3008 68° East 510 587 37,100 -60 Level Los Angeles Center
01:26PM 36.7144 -113.1367 69° East 512 589 37,000  Descending Los Angeles Center
01:27PM 36.7678 -112.9717 68° East 515 593 37,100  Climbing Los Angeles Center
01:28PM 36.8189 -112.8053 69° East 516 594 37,100  Level Los Angeles Center
01:29PM 36.8722 -112.6406 68° East 517 595 37,100  Level Los Angeles Center
01:30PM 36.9336 -112.4414 69° East 517 595 37,100  Level Los Angeles Center
01:31PM 36.9856 -112.2750 69° East 517 595 37,100  Level Los Angeles Center
01:32PM 37.0364 -112.1092 69° East 515 593 37,100  Level Los Angeles Center
01:33PM 37.0883 -111.9419 69° East 517 595 37,100  Level Los Angeles Center
01:34PM 37.1375 -111.7750 70° East 518 596 37,100  Level Denver Center
01:35PM 37.1894 -111.6067 69° East 519 597 37,100  Level Denver Center
01:36PM 37.2394 -111.4372 70° East 522 601 37,100  Level Denver Center
01:37PM 37.2997 -111.2342 69° East 519 597 37,100  Level Denver Center
01:38PM 37.3494 -111.0642 70° East 520 598 37,100  Level Denver Center
01:39PM 37.4003 -110.8933 69° East 523 602 37,100 -60 Level Denver Center
01:40PM 37.4511 -110.7233 69° East 521 600 37,000  Descending Denver Center
01:41PM 37.4997 -110.5528 70° East 520 598 37,100  Climbing Denver Center
01:42PM 37.5506 -110.3742 70° East 520 598 37,100  Level Denver Center
01:43PM 37.6064 -110.1836 70° East 518 596 37,100  Level Denver Center
01:44PM 37.6533 -110.0181 70° East 520 598 37,100  Level Denver Center
01:46PM 37.7083 -109.8256 70° East 520 598 37,100  Level Denver Center
01:47PM 37.7542 -109.6606 71° East 519 597 37,100 -60 Level Denver Center
01:48PM 37.8078 -109.4697 70° East 516 594 37,000 -60 Descending Denver Center
01:49PM 37.8531 -109.3053 71° East 515 593 37,000  Level Denver Center
01:50PM 37.9056 -109.1142 71° East 515 593 37,100  Climbing Denver Center
01:51PM 37.9431 -108.9478 74° East 512 589 37,100  Level Denver Center
01:52PM 37.9806 -108.7817 74° East 512 589 37,100  Level Denver Center
01:53PM 38.0256 -108.5889 73° East 511 588 37,100  Level Denver Center
01:54PM 38.0678 -108.4064 74° East 511 588 37,100  Level Denver Center
01:55PM 38.1044 -108.2433 74° East 505 581 37,100  Level Denver Center
01:56PM 38.1478 -108.0544 74° East 502 578 37,100  Level Denver Center
01:57PM 38.1836 -107.8919 74° East 501 577 37,100  Level Denver Center
01:58PM 38.2261 -107.7058 74° East 495 570 37,100  Level Denver Center
01:59PM 38.2625 -107.5433 74° East 499 574 37,100  Level Denver Center
02:00PM 38.3031 -107.3553 75° East 496 571 37,100  Level Denver Center
02:01PM 38.3392 -107.1919 74° East 501 577 37,100  Level Denver Center
02:02PM 38.3739 -107.0308 75° East 497 572 37,100  Level Denver Center
02:03PM 38.4175 -106.8264 75° East 499 574 37,100  Level Denver Center
02:04PM 38.4533 -106.6564 75° East 498 573 37,100  Level Denver Center
02:05PM 38.4892 -106.4847 75° East 501 577 37,100  Level Denver Center
02:06PM 38.5253 -106.3128 75° East 504 580 37,100  Level Denver Center
02:07PM 38.5642 -106.1311 75° East 503 579 37,100  Level Denver Center
02:08PM 38.6019 -105.9419 76° East 494 568 37,100 -60 Level Denver Center
02:09PM 38.6353 -105.7769 75° East 496 571 37,000 -60 Descending Denver Center
02:10PM 38.6697 -105.6089 75° East 492 566 37,000  Level Denver Center
02:11PM 38.7039 -105.4383 76° East 496 571 37,100  Climbing Denver Center
02:12PM 38.7389 -105.2672 75° East 499 574 37,100  Level Denver Center
02:13PM 38.7786 -105.0625 76° East 496 571 37,100 -60 Level Denver Center
02:14PM 38.8125 -104.8922 76° East 497 572 37,000  Descending Denver Center
02:16PM 38.8456 -104.7222 76° East 496 571 37,100  Climbing Denver Center
02:17PM 38.8789 -104.5500 76° East 498 573 37,100  Level Denver Center
02:18PM 38.9119 -104.3792 76° East 497 572 37,100  Level Denver Center
02:19PM 38.9500 -104.1736 77° East 498 573 37,100  Level Denver Center
02:20PM 38.9828 -104.0014 76° East 500 575 37,100 -60 Level Denver Center
02:21PM 39.0147 -103.8289 77° East 499 574 37,000  Descending Denver Center
02:22PM 39.0467 -103.6544 77° East 503 579 37,100  Climbing Denver Center
02:23PM 39.0783 -103.4803 77° East 502 578 37,000  Descending Denver Center
02:24PM 39.1164 -103.2700 77° East 505 581 37,100  Climbing Denver Center
02:25PM 39.1472 -103.0939 77° East 505 581 37,100  Level Denver Center
02:26PM 39.1792 -102.9181 77° East 506 582 37,100  Level Denver Center
02:27PM 39.2122 -102.7283 77° East 506 582 37,100  Level Denver Center
02:28PM 39.2403 -102.5681 77° East 505 581 37,100  Level Denver Center
02:29PM 39.2733 -102.3703 78° East 504 580 37,100  Level Denver Center
02:30PM 39.3019 -102.2047 77° East 496 571 37,100  Level Denver Center
02:31PM 39.3333 -102.0231 77° East 497 572 37,100  Level Denver Center
02:32PM 39.3658 -101.8275 78° East 499 574 37,100  Level Denver Center
02:33PM 39.3908 -101.6600 79° East 497 572 37,100  Level Denver Center
02:34PM 39.4039 -101.4606 85° East 499 574 37,100  Level Denver Center
02:35PM 39.4164 -101.2911 84° East 497 572 37,100  Level Denver Center
02:36PM 39.4306 -101.0908 85° East 501 577 37,100  Level Denver Center
02:37PM 39.4417 -100.9192 85° East 502 578 37,100  Level Denver Center
02:38PM 39.4547 -100.7167 85° East 506 582 37,100  Level Denver Center
02:39PM 39.4658 -100.5422 85° East 509 586 37,100  Level Denver Center
02:40PM 39.4769 -100.3711 85° East 503 579 37,100  Level Denver Center
02:41PM 39.4889 -100.1703 86° East 502 578 37,100  Level Denver Center
02:42PM 39.4994 -100.0003 85° East 499 574 37,100  Level Denver Center
02:43PM 39.5197 -99.8106 82° East 504 580 37,100  Level Denver Center
02:44PM 39.5383 -99.6328 82° East 502 578 37,100 -60 Level Denver Center
02:45PM 39.5564 -99.4658 82° East 476 548 37,000  Descending Denver Center
02:47PM 39.5808 -99.2364 82° East 462 532 37,100  Climbing Denver Center
02:48PM 39.5969 -99.0714 83° East 463 533 37,100  Level Denver Center
02:49PM 39.6144 -98.9081 82° East 459 528 37,100  Level Denver Center
02:50PM 39.6303 -98.7436 83° East 462 532 37,100  Level Denver Center
02:51PM 39.6464 -98.5800 83° East 460 529 37,100  Level Denver Center
02:52PM 39.6625 -98.4181 83° East 456 525 37,100  Level Denver Center
02:53PM 39.6803 -98.2272 83° East 451 519 37,100  Level Minneapolis Center
02:54PM 39.6950 -98.0636 83° East 454 522 37,100 -60 Level Minneapolis Center
02:55PM 39.7103 -97.8947 83° East 466 536 37,000  Descending Minneapolis Center
02:56PM 39.7281 -97.6914 83° East 472 543 37,100  Climbing Minneapolis Center
02:57PM 39.7439 -97.5244 83° East 470 541 37,100  Level Minneapolis Center
02:58PM 39.7581 -97.3592 84° East 464 534 37,100  Level Minneapolis Center
02:59PM 39.7844 -97.1953 78° East 456 525 37,100  Level Kansas City Center
03:00PM 39.8111 -97.0344 78° East 457 526 37,100  Level Kansas City Center
03:01PM 39.8406 -96.8428 79° East 453 521 37,100  Level Kansas City Center
03:02PM 39.8656 -96.6825 78° East 452 520 37,100  Level Kansas City Center
03:03PM 39.8903 -96.5222 79° East 453 521 37,100  Level Kansas City Center
03:04PM 39.9147 -96.3611 79° East 454 522 37,100  Level Kansas City Center
03:05PM 39.9383 -96.1997 79° East 455 524 37,100  Level Kansas City Center
03:06PM 39.9636 -96.0311 79° East 457 526 37,100  Level Kansas City Center
03:07PM 39.9908 -95.8506 79° East 455 524 37,100  Level Kansas City Center
03:09PM 40.0136 -95.6933 79° East 457 526 37,100  Level Kansas City Center
03:10PM 40.0403 -95.5081 79° East 462 532 37,100  Level Kansas City Center
03:11PM 40.0625 -95.3531 79° East 455 524 37,100  Level Kansas City Center
03:12PM 40.0850 -95.1981 79° East 454 522 37,100  Level Kansas City Center
03:13PM 40.1103 -95.0142 80° East 453 521 37,100  Level Kansas City Center
03:14PM 40.1311 -94.8631 80° East 450 518 37,100  Level Kansas City Center
03:15PM 40.1556 -94.6833 80° East 449 517 37,100  Level Kansas City Center
03:16PM 40.1769 -94.5286 80° East 449 517 37,100  Level Kansas City Center
03:17PM 40.2017 -94.3514 80° East 443 510 37,100  Level Kansas City Center
03:18PM 40.2208 -94.2003 81° East 441 507 37,100  Level Kansas City Center
03:19PM 40.2403 -94.0294 81° East 445 512 37,100  Level Kansas City Center
03:20PM 40.2603 -93.8722 80° East 445 512 37,100  Level Kansas City Center
03:21PM 40.2806 -93.7164 80° East 440 506 37,100  Level Kansas City Center
03:22PM 40.3014 -93.5578 80° East 444 511 37,100 -60 Level Kansas City Center
03:23PM 40.3219 -93.4006 80° East 442 509 37,000  Descending Kansas City Center
03:24PM 40.3456 -93.2142 81° East 437 503 37,100  Climbing Kansas City Center
03:25PM 40.3644 -93.0606 81° East 431 496 37,100  Level Kansas City Center
03:26PM 40.3814 -92.9150 81° East 430 495 37,100  Level Kansas City Center
03:27PM 40.4044 -92.7406 80° East 433 498 37,100  Level Kansas City Center
03:28PM 40.4236 -92.5886 81° East 445 512 37,100 -180 Level Kansas City Center
03:29PM 40.4408 -92.4281 82° East 443 510 36,800 -600 Descending Kansas City Center
03:30PM 40.4517 -92.3283 82° East 438 504 36,200 -1,020 Descending Chicago Center
03:30PM 40.4586 -92.2642 82° East 439 505 35,800 -900 Descending Kansas City Center
03:31PM 40.4767 -92.1031 82° East 445 512 34,900 -960 Descending Kansas City Center
03:32PM 40.4881 -92.0061 81° East 450 518 34,300 -960 Descending Chicago Center
03:33PM 40.5053 -91.8414 82° East 456 525 33,400 -660 Descending Chicago Center
03:34PM 40.5236 -91.6775 82° East 456 525 33,000 -240 Descending Chicago Center
03:35PM 40.5453 -91.4817 82° East 455 524 33,000  Level Chicago Center
03:36PM 40.5806 -91.3231 74° East 464 534 33,000  Level Chicago Center
03:37PM 40.6328 -91.1708 66° East 458 527 33,000  Level Chicago Center
03:38PM 40.6861 -91.0153 66° East 464 534 33,000 -300 Level Chicago Center
03:39PM 40.7136 -90.8525 77° East 458 527 32,400 -780 Descending Chicago Center
03:40PM 40.7372 -90.6878 79° East 458 527 31,400 -1,200 Descending Chicago Center
03:41PM 40.7872 -90.4911 71° East 478 550 30,000 -720 Descending Chicago Center
03:42PM 40.8547 -90.3342 60° Northeast 487 560 30,000 -180 Level Chicago Center
03:43PM 40.9194 -90.1747 62° Northeast 485 558 29,700 -960 Descending Chicago Center
03:44PM 40.9817 -90.0186 62° Northeast 485 558 28,100 -1,620 Descending Chicago Center
03:45PM 41.0494 -89.8603 60° Northeast 474 545 26,400 -1,620 Descending Chicago Center
03:46PM 41.1114 -89.7100 61° Northeast 462 532 24,800 -1,200 Descending Chicago Center
03:47PM 41.1697 -89.5669 62° Northeast 444 511 24,000 -1,320 Descending Chicago Center
03:48PM 41.2264 -89.4258 62° Northeast 434 499 22,100 -2,040 Descending Chicago Center
03:49PM 41.2811 -89.2914 62° Northeast 417 480 19,900 -2,160 Descending Chicago Center
03:50PM 41.3347 -89.1500 63° Northeast 391 450 17,700 -1,980 Descending Chicago Center
03:51PM 41.3861 -89.0244 61° Northeast 387 445 15,900 -1,860 Descending Chicago Center
03:52PM 41.4336 -88.9033 62° Northeast 373 429 14,000 -2,040 Descending Chicago Center
03:53PM 41.4903 -88.7603 62° Northeast 362 417 11,800 -1,500 Descending Chicago Center
03:54PM 41.4794 -88.6356 97° East 343 395 11,000 -420 Descending Chicago Center
03:55PM 41.4964 -88.5306 78° East 325 374 11,000 -600 Level Chicago Center
03:56PM 41.5647 -88.4667 35° Northeast 303 349 9,800 -1,260 Descending Chicago Center
03:57PM 41.6289 -88.3942 40° Northeast 302 348 8,400 -1,140 Descending Chicago Center
03:58PM 41.7056 -88.3539 21° North 298 343 7,500 -720 Descending Chicago Center
04:00PM 41.7806 -88.3133 22° Northeast 292 336 7,000 -540 Descending Chicago Center
04:01PM 41.8639 -88.2767 18° North 262 302 6,500 -1,020 Descending Chicago Center
04:02PM 41.9322 -88.2753 North 249 287 5,000 -1,260 Descending Chicago Center
04:03PM 41.9686 -88.2267 45° Northeast 249 287 4,000 -1,020 Descending Chicago Center